Station History

Weather Underground - logo

Station Historical Data
Daily Summary for July 20, 2017 Units:  English    Metric   Both
« Previous Day
Next Day »
Daily Weekly Monthly Yearly Custom
  High: Low: Average:
Temperature: 96.3 °F 61.8 °F 79.7 °F
Dew Point: 61.0 °F 49.9 °F 57.1 °F
Humidity: 83 % 21 % 50 %
Wind Speed: 4.6 mph 0.0 mph 1.3 mph
Wind Gust: 4.6 mph - -
Wind:- - WSW
Pressure: 29.96 in 29.83 in -
Precipitation: 0.00 in    
Historical Graphs
 
 
Tabular Data for July 20, 2017
Time Temperature Dew Point Pressure Wind Wind Speed Wind Gust Humidity Rainfall Rate (Hourly)
00:03 72.6 °F 58.4 °F 29.87 in Calm     61 % 0.00 in
00:08 72.4 °F 59.1 °F 29.87 in Calm     63 % 0.00 in
00:13 72.4 °F 58.6 °F 29.87 in Calm     62 % 0.00 in
00:18 72.5 °F 55.9 °F 29.87 in Calm     56 % 0.00 in
00:23 73.8 °F 55.6 °F 29.87 in Calm   0.1 mph 53 % 0.00 in
00:28 75.2 °F 55.8 °F 29.87 in Calm     51 % 0.00 in
00:33 75.4 °F 54.9 °F 29.87 in WNW 2.3 mph 2.3 mph 49 % 0.00 in
00:38 75.3 °F 56.5 °F 29.87 in Calm     52 % 0.00 in
00:43 74.7 °F 55.9 °F 29.87 in Calm     52 % 0.00 in
00:48 73.9 °F 56.2 °F 29.88 in Calm     54 % 0.00 in
00:53 73.1 °F 57.0 °F 29.88 in Calm     57 % 0.00 in
00:58 72.3 °F 57.6 °F 29.88 in Calm     60 % 0.00 in
01:03 71.4 °F 57.7 °F 29.88 in Calm     62 % 0.00 in
01:08 70.9 °F 58.1 °F 29.88 in Calm     64 % 0.00 in
01:13 70.6 °F 57.4 °F 29.88 in Calm     63 % 0.00 in
01:18 70.2 °F 57.9 °F 29.88 in Calm     65 % 0.00 in
01:23 69.8 °F 58.3 °F 29.88 in Calm     67 % 0.00 in
01:25 69.7 °F 58.7 °F 29.88 in Calm     68 % 0.00 in
01:30 69.4 °F 58.8 °F 29.88 in Calm     69 % 0.00 in
01:35 69.0 °F 58.8 °F 29.88 in Calm     70 % 0.00 in
01:40 68.9 °F 58.7 °F 29.88 in Calm     70 % 0.00 in
01:45 68.7 °F 57.7 °F 29.88 in Calm     68 % 0.00 in
01:50 68.7 °F 57.7 °F 29.88 in Calm     68 % 0.00 in
01:52 68.7 °F 57.7 °F 29.88 in Calm     68 % 0.00 in
01:57 68.7 °F 58.1 °F 29.88 in Calm     69 % 0.00 in
02:02 68.6 °F 58.4 °F 29.88 in Calm     70 % 0.00 in
02:07 68.4 °F 58.6 °F 29.88 in Calm     71 % 0.00 in
02:12 68.2 °F 58.4 °F 29.88 in Calm     71 % 0.00 in
02:17 68.1 °F 58.7 °F 29.88 in Calm     72 % 0.00 in
02:22 67.9 °F 57.8 °F 29.88 in Calm     70 % 0.00 in
02:27 67.8 °F 58.8 °F 29.88 in Calm     73 % 0.00 in
02:32 67.6 °F 58.6 °F 29.88 in Calm     73 % 0.00 in
02:37 67.5 °F 58.5 °F 29.88 in Calm     73 % 0.00 in
02:42 67.3 °F 58.7 °F 29.88 in Calm     74 % 0.00 in
02:47 67.1 °F 58.2 °F 29.88 in Calm     73 % 0.00 in
02:52 66.9 °F 58.3 °F 29.88 in Calm     74 % 0.00 in
02:57 66.6 °F 58.1 °F 29.88 in Calm     74 % 0.00 in
03:02 66.5 °F 58.7 °F 29.88 in Calm     76 % 0.00 in
03:07 66.4 °F 59.0 °F 29.88 in Calm     77 % 0.00 in
03:12 66.3 °F 58.1 °F 29.88 in Calm     75 % 0.00 in
03:17 66.1 °F 57.6 °F 29.88 in Calm     74 % 0.00 in
03:22 65.7 °F 57.6 °F 29.88 in Calm     75 % 0.00 in
03:27 65.2 °F 57.8 °F 29.89 in Calm     77 % 0.00 in
03:32 64.8 °F 57.8 °F 29.89 in Calm     78 % 0.00 in
03:37 64.5 °F 58.2 °F 29.89 in Calm     80 % 0.00 in
03:42 64.3 °F 58.0 °F 29.89 in Calm     80 % 0.00 in
03:47 64.1 °F 58.1 °F 29.89 in Calm     81 % 0.00 in
03:52 63.9 °F 58.3 °F 29.89 in Calm     82 % 0.00 in
03:57 63.7 °F 58.1 °F 29.89 in Calm     82 % 0.00 in
04:03 63.5 °F 57.9 °F 29.89 in Calm     82 % 0.00 in
04:08 63.4 °F 57.8 °F 29.89 in Calm     82 % 0.00 in
04:13 63.3 °F 57.7 °F 29.89 in Calm     82 % 0.00 in
04:18 63.2 °F 57.6 °F 29.90 in Calm     82 % 0.00 in
04:23 63.1 °F 57.5 °F 29.90 in Calm     82 % 0.00 in
04:28 63.0 °F 57.4 °F 29.90 in Calm     82 % 0.00 in
04:33 62.9 °F 57.7 °F 29.90 in WNW 1.2 mph   83 % 0.00 in
04:38 62.8 °F 57.2 °F 29.90 in WNW 1.2 mph   82 % 0.00 in
04:43 62.8 °F 57.2 °F 29.90 in WNW 1.2 mph 1.2 mph 82 % 0.00 in
04:48 62.8 °F 57.2 °F 29.90 in WNW 1.2 mph 1.2 mph 82 % 0.00 in
04:54 62.6 °F 57.0 °F 29.90 in Calm     82 % 0.00 in
04:59 62.5 °F 56.9 °F 29.90 in Calm     82 % 0.00 in
05:04 62.7 °F 56.8 °F 29.91 in Calm     81 % 0.00 in
05:09 62.9 °F 56.6 °F 29.91 in WNW 1.0 mph   80 % 0.00 in
05:14 63.1 °F 56.5 °F 29.91 in Calm     79 % 0.00 in
05:19 63.2 °F 56.6 °F 29.91 in Calm     79 % 0.00 in
05:24 63.3 °F 56.7 °F 29.91 in Calm     79 % 0.00 in
05:29 63.3 °F 56.7 °F 29.91 in Calm     79 % 0.00 in
05:34 63.2 °F 56.6 °F 29.91 in Calm     79 % 0.00 in
05:39 62.8 °F 56.5 °F 29.92 in Calm     80 % 0.00 in
05:44 62.5 °F 56.6 °F 29.92 in Calm     81 % 0.00 in
05:49 62.4 °F 56.5 °F 29.92 in Calm     81 % 0.00 in
05:54 62.3 °F 56.4 °F 29.92 in Calm     81 % 0.00 in
05:59 62.1 °F 56.2 °F 29.92 in Calm     81 % 0.00 in
06:04 62.0 °F 56.4 °F 29.92 in Calm     82 % 0.00 in
06:09 61.9 °F 56.3 °F 29.92 in WNW 1.2 mph   82 % 0.00 in
06:14 61.8 °F 56.6 °F 29.92 in Calm     83 % 0.00 in
06:19 62.0 °F 56.4 °F 29.93 in Calm     82 % 0.00 in
06:24 62.1 °F 56.5 °F 29.93 in Calm     82 % 0.00 in
06:29 62.2 °F 56.6 °F 29.94 in Calm     82 % 0.00 in
06:34 62.3 °F 56.7 °F 29.94 in Calm     82 % 0.00 in
06:39 62.5 °F 56.9 °F 29.94 in WNW 1.2 mph   82 % 0.00 in
06:44 62.8 °F 57.2 °F 29.94 in WNW 1.2 mph 1.2 mph 82 % 0.00 in
06:49 63.1 °F 57.5 °F 29.94 in Calm     82 % 0.00 in
06:54 63.5 °F 57.6 °F 29.95 in Calm     81 % 0.00 in
06:59 64.1 °F 57.8 °F 29.94 in WNW 1.2 mph 1.2 mph 80 % 0.00 in
07:04 65.0 °F 58.0 °F 29.95 in SSE 1.2 mph 1.2 mph 78 % 0.00 in
07:09 66.0 °F 58.2 °F 29.95 in ESE 2.3 mph 2.3 mph 76 % 0.00 in
07:15 66.9 °F 58.7 °F 29.95 in ESE 1.2 mph 1.2 mph 75 % 0.00 in
07:20 67.7 °F 58.7 °F 29.95 in Calm     73 % 0.00 in
07:25 68.4 °F 58.6 °F 29.95 in SSE 1.2 mph 1.2 mph 71 % 0.00 in
07:30 68.7 °F 58.5 °F 29.96 in Calm     70 % 0.00 in
07:35 69.2 °F 59.0 °F 29.96 in Calm     70 % 0.00 in
07:40 69.8 °F 58.8 °F 29.96 in SSE 1.2 mph 1.2 mph 68 % 0.00 in
07:45 70.2 °F 59.1 °F 29.96 in SE 1.0 mph 1.0 mph 68 % 0.00 in
07:50 70.9 °F 59.4 °F 29.96 in ESE 1.2 mph 1.2 mph 67 % 0.00 in
07:55 71.3 °F 58.9 °F 29.96 in East 1.0 mph   65 % 0.00 in
08:00 71.6 °F 58.3 °F 29.96 in East 1.2 mph 1.2 mph 63 % 0.00 in
08:05 71.9 °F 58.6 °F 29.96 in East 2.3 mph 2.3 mph 63 % 0.00 in
08:10 72.2 °F 58.5 °F 29.96 in East 1.2 mph 1.2 mph 62 % 0.00 in
08:15 72.6 °F 57.9 °F 29.96 in East 3.5 mph 3.5 mph 60 % 0.00 in
08:20 72.7 °F 58.0 °F 29.96 in East 2.3 mph 2.3 mph 60 % 0.00 in
08:25 73.2 °F 58.5 °F 29.96 in East 1.0 mph 1.0 mph 60 % 0.00 in
08:30 74.1 °F 58.9 °F 29.96 in East 2.3 mph 2.3 mph 59 % 0.00 in
08:35 74.7 °F 59.9 °F 29.96 in Calm     60 % 0.00 in
08:40 75.6 °F 58.8 °F 29.96 in South 1.2 mph   56 % 0.00 in
08:41 75.7 °F 58.9 °F 29.96 in SSE 2.0 mph 2.0 mph 56 % 0.00 in
08:46 76.1 °F 58.8 °F 29.96 in ENE 2.3 mph 2.3 mph 55 % 0.00 in
08:51 76.5 °F 58.1 °F 29.96 in ENE 2.3 mph 2.3 mph 53 % 0.00 in
08:56 76.3 °F 58.4 °F 29.96 in ENE 3.5 mph 3.5 mph 54 % 0.00 in
09:01 76.7 °F 58.3 °F 29.96 in ESE 1.2 mph 1.2 mph 53 % 0.00 in
09:06 77.1 °F 57.6 °F 29.96 in East 3.5 mph 3.5 mph 51 % 0.00 in
09:11 77.8 °F 58.8 °F 29.96 in East 1.2 mph   52 % 0.00 in
09:16 78.5 °F 58.9 °F 29.96 in South 3.5 mph   51 % 0.00 in
09:21 78.9 °F 58.1 °F 29.96 in SE 1.2 mph 1.2 mph 49 % 0.00 in
09:26 79.3 °F 59.6 °F 29.96 in ENE 1.2 mph 1.2 mph 51 % 0.00 in
09:31 79.7 °F 60.5 °F 29.96 in NNW 1.2 mph 1.2 mph 52 % 0.00 in
09:36 80.1 °F 59.8 °F 29.96 in SE 1.2 mph   50 % 0.00 in
09:41 80.3 °F 58.8 °F 29.96 in South 1.2 mph 1.2 mph 48 % 0.00 in
09:46 80.7 °F 59.8 °F 29.96 in NNE 3.5 mph 3.5 mph 49 % 0.00 in
09:51 81.2 °F 58.5 °F 29.96 in South 1.2 mph 1.2 mph 46 % 0.00 in
09:56 81.6 °F 59.4 °F 29.96 in East 2.3 mph 2.3 mph 47 % 0.00 in
10:01 82.0 °F 59.8 °F 29.96 in NNW 1.0 mph 1.0 mph 47 % 0.00 in
10:06 82.5 °F 59.0 °F 29.96 in NW 3.5 mph 3.5 mph 45 % 0.00 in
10:11 82.8 °F 59.9 °F 29.96 in East 2.3 mph 2.3 mph 46 % 0.00 in
10:16 82.7 °F 58.6 °F 29.96 in NNW 1.0 mph 1.0 mph 44 % 0.00 in
10:21 82.5 °F 58.4 °F 29.96 in NNW 3.5 mph 3.5 mph 44 % 0.00 in
10:26 82.7 °F 61.0 °F 29.96 in ENE 1.2 mph 1.2 mph 48 % 0.00 in
10:31 83.0 °F 60.1 °F 29.96 in NW 3.5 mph 3.5 mph 46 % 0.00 in
10:36 83.3 °F 59.1 °F 29.96 in NNW 4.0 mph 4.0 mph 44 % 0.00 in
10:41 83.1 °F 57.6 °F 29.96 in West 3.5 mph 3.5 mph 42 % 0.00 in
10:46 83.0 °F 58.2 °F 29.95 in NW 2.3 mph 2.3 mph 43 % 0.00 in
10:52 83.8 °F 60.8 °F 29.96 in SW 2.3 mph 2.3 mph 46 % 0.00 in
10:57 84.5 °F 57.5 °F 29.95 in West 3.5 mph 3.5 mph 40 % 0.00 in
11:02 84.6 °F 57.6 °F 29.95 in WSW 2.3 mph 2.3 mph 40 % 0.00 in
11:07 84.9 °F 57.2 °F 29.95 in SW 1.2 mph 1.2 mph 39 % 0.00 in
11:12 85.2 °F 57.4 °F 29.95 in North 2.3 mph 2.3 mph 39 % 0.00 in
11:17 85.5 °F 57.0 °F 29.95 in SW 1.2 mph 1.2 mph 38 % 0.00 in
11:22 85.7 °F 57.2 °F 29.95 in NW 3.5 mph 3.5 mph 38 % 0.00 in
11:27 85.7 °F 58.6 °F 29.95 in WSW 1.2 mph 1.2 mph 40 % 0.00 in
11:32 86.1 °F 59.6 °F 29.95 in ESE 3.0 mph 3.0 mph 41 % 0.00 in
11:37 86.3 °F 59.1 °F 29.95 in South 4.6 mph 4.6 mph 40 % 0.00 in
11:42 86.9 °F 59.0 °F 29.95 in SSE 3.5 mph 3.5 mph 39 % 0.00 in
11:47 87.1 °F 58.4 °F 29.95 in SE 3.5 mph 3.5 mph 38 % 0.00 in
11:52 87.6 °F 58.9 °F 29.95 in SE 3.5 mph 3.5 mph 38 % 0.00 in
11:57 87.7 °F 58.2 °F 29.95 in ENE 2.3 mph 2.3 mph 37 % 0.00 in
12:02 87.9 °F 59.1 °F 29.95 in NNW 2.0 mph 2.0 mph 38 % 0.00 in
12:07 87.9 °F 58.4 °F 29.95 in WNW 1.2 mph 1.3 mph 37 % 0.00 in
12:12 88.3 °F 59.5 °F 29.95 in NW 2.3 mph 2.3 mph 38 % 0.00 in
12:17 89.1 °F 57.1 °F 29.95 in NE 2.3 mph 2.3 mph 34 % 0.00 in
12:22 89.4 °F 56.5 °F 29.95 in WNW 2.3 mph 2.3 mph 33 % 0.00 in
12:27 89.4 °F 56.5 °F 29.95 in NNE 2.3 mph 2.3 mph 33 % 0.00 in
12:32 90.0 °F 58.7 °F 29.94 in NW 2.3 mph 2.3 mph 35 % 0.00 in
12:37 90.0 °F 56.2 °F 29.94 in North 3.5 mph 3.5 mph 32 % 0.00 in
12:42 89.9 °F 55.2 °F 29.94 in NW 2.3 mph 2.3 mph 31 % 0.00 in
12:48 89.9 °F 55.2 °F 29.94 in North 1.2 mph 1.2 mph 31 % 0.00 in
12:53 90.1 °F 57.1 °F 29.93 in WNW 2.0 mph 2.0 mph 33 % 0.00 in
12:57 90.1 °F 55.4 °F 29.93 in ENE 3.5 mph 3.5 mph 31 % 0.00 in
13:03 90.7 °F 58.5 °F 29.93 in ESE 2.3 mph 2.3 mph 34 % 0.00 in
13:08 90.9 °F 55.2 °F 29.93 in WSW 2.3 mph 2.3 mph 30 % 0.00 in
13:13 91.6 °F 58.4 °F 29.93 in South 2.3 mph 2.3 mph 33 % 0.00 in
13:18 92.4 °F 58.3 °F 29.93 in South 3.5 mph 3.5 mph 32 % 0.00 in
13:23 92.5 °F 59.2 °F 29.93 in SE 3.5 mph 3.5 mph 33 % 0.00 in
13:28 92.7 °F 58.5 °F 29.93 in East 3.5 mph 3.5 mph 32 % 0.00 in
13:33 93.1 °F 56.1 °F 29.93 in West 2.3 mph 2.3 mph 29 % 0.00 in
13:38 92.8 °F 56.8 °F 29.92 in NW 1.2 mph   30 % 0.00 in
13:43 92.9 °F 56.0 °F 29.92 in NNW 3.5 mph 3.5 mph 29 % 0.00 in
13:48 92.6 °F 56.6 °F 29.92 in North 3.5 mph 3.5 mph 30 % 0.00 in
13:53 92.3 °F 57.3 °F 29.92 in NNE 1.2 mph   31 % 0.00 in
13:58 93.1 °F 57.1 °F 29.92 in SE 1.0 mph   30 % 0.00 in
14:03 94.1 °F 59.7 °F 29.92 in SSW 3.0 mph 3.0 mph 32 % 0.00 in
14:08 94.6 °F 56.4 °F 29.91 in SE 3.5 mph 3.5 mph 28 % 0.00 in
14:13 94.9 °F 57.7 °F 29.91 in NNW 2.0 mph 2.0 mph 29 % 0.00 in
14:18 94.7 °F 57.5 °F 29.91 in West 4.6 mph 4.6 mph 29 % 0.00 in
14:23 94.1 °F 57.0 °F 29.91 in NNW 2.3 mph 2.3 mph 29 % 0.00 in
14:28 94.0 °F 58.8 °F 29.91 in NW 1.2 mph 1.2 mph 31 % 0.00 in
14:33 94.2 °F 57.1 °F 29.91 in North 2.3 mph 2.3 mph 29 % 0.00 in
14:38 94.8 °F 57.6 °F 29.90 in SE 2.3 mph 2.3 mph 29 % 0.00 in
14:43 95.6 °F 55.2 °F 29.90 in WNW 3.5 mph 3.5 mph 26 % 0.00 in
14:47 95.2 °F 57.0 °F 29.90 in SSW 3.5 mph   28 % 0.00 in
14:52 95.5 °F 55.2 °F 29.90 in SW 2.3 mph 2.3 mph 26 % 0.00 in
14:57 95.9 °F 55.5 °F 29.90 in NW 2.3 mph 2.3 mph 26 % 0.00 in
15:02 95.6 °F 53.1 °F 29.89 in NW 3.5 mph 3.5 mph 24 % 0.00 in
15:07 95.0 °F 55.8 °F 29.89 in NNW 4.6 mph 4.6 mph 27 % 0.00 in
15:12 95.6 °F 55.2 °F 29.89 in NNW 2.3 mph 2.3 mph 26 % 0.00 in
15:17 95.6 °F 56.3 °F 29.89 in East 1.2 mph   27 % 0.00 in
15:22 96.0 °F 56.6 °F 29.88 in West 3.5 mph 3.5 mph 27 % 0.00 in
15:27 96.3 °F 57.9 °F 29.89 in NW 1.2 mph 1.2 mph 28 % 0.00 in
15:32 96.2 °F 57.8 °F 29.88 in West 2.3 mph 2.3 mph 28 % 0.00 in
15:37 95.8 °F 55.4 °F 29.88 in NW 3.5 mph 3.5 mph 26 % 0.00 in
15:42 95.7 °F 57.4 °F 29.87 in West 3.5 mph 3.5 mph 28 % 0.00 in
15:47 96.0 °F 55.6 °F 29.87 in NNW 2.0 mph 2.0 mph 26 % 0.00 in
15:52 95.7 °F 55.3 °F 29.87 in NW 1.2 mph 1.2 mph 26 % 0.00 in
15:57 95.7 °F 53.1 °F 29.87 in NW 3.5 mph 3.5 mph 24 % 0.00 in
16:02 95.7 °F 54.3 °F 29.86 in NNW 4.0 mph 4.0 mph 25 % 0.00 in
16:07 96.1 °F 52.3 °F 29.86 in NNW 3.5 mph 3.5 mph 23 % 0.00 in
16:12 95.9 °F 54.4 °F 29.86 in NW 2.3 mph 2.3 mph 25 % 0.00 in
16:17 96.2 °F 49.9 °F 29.86 in NW 4.0 mph 4.0 mph 21 % 0.00 in
16:22 95.6 °F 51.9 °F 29.86 in NW 4.6 mph 4.6 mph 23 % 0.00 in
16:27 95.4 °F 51.7 °F 29.86 in West 2.3 mph 2.3 mph 23 % 0.00 in
16:32 95.4 °F 52.9 °F 29.86 in NNW 3.5 mph 3.5 mph 24 % 0.00 in
16:37 95.5 °F 51.8 °F 29.85 in NNW 2.3 mph 2.3 mph 23 % 0.00 in
16:42 95.6 °F 53.1 °F 29.85 in NW 2.3 mph 2.3 mph 24 % 0.00 in
16:47 95.5 °F 53.0 °F 29.85 in NNW 3.5 mph 3.5 mph 24 % 0.00 in
16:52 95.6 °F 54.2 °F 29.85 in NW 3.5 mph 3.5 mph 25 % 0.00 in
16:57 95.6 °F 54.2 °F 29.85 in WNW 3.5 mph 3.5 mph 25 % 0.00 in
17:02 95.1 °F 55.9 °F 29.85 in North 3.5 mph 3.5 mph 27 % 0.00 in
17:07 95.4 °F 55.1 °F 29.84 in WNW 2.3 mph 2.3 mph 26 % 0.00 in
17:12 95.1 °F 54.8 °F 29.84 in NW 3.5 mph 3.5 mph 26 % 0.00 in
17:17 95.2 °F 54.9 °F 29.84 in WNW 4.6 mph 4.6 mph 26 % 0.00 in
17:22 95.4 °F 52.9 °F 29.84 in NNW 2.3 mph 2.3 mph 24 % 0.00 in
17:27 95.2 °F 52.7 °F 29.84 in West 4.6 mph 4.6 mph 24 % 0.00 in
17:32 94.9 °F 52.5 °F 29.84 in NW 2.3 mph 2.3 mph 24 % 0.00 in
17:37 95.2 °F 53.8 °F 29.84 in WNW 3.5 mph 3.5 mph 25 % 0.00 in
17:42 95.2 °F 51.6 °F 29.84 in NW 3.5 mph 3.5 mph 23 % 0.00 in
17:47 95.4 °F 52.9 °F 29.84 in North 2.3 mph 2.3 mph 24 % 0.00 in
17:52 95.2 °F 52.7 °F 29.84 in NW 3.0 mph 3.0 mph 24 % 0.00 in
17:57 95.2 °F 52.7 °F 29.83 in West 2.3 mph 2.3 mph 24 % 0.00 in
18:02 95.0 °F 52.6 °F 29.83 in North 3.5 mph 3.5 mph 24 % 0.00 in
18:07 94.9 °F 53.6 °F 29.83 in NW 3.5 mph 3.5 mph 25 % 0.00 in
18:12 94.9 °F 52.5 °F 29.83 in West 3.5 mph 3.5 mph 24 % 0.00 in
18:17 94.7 °F 51.1 °F 29.83 in NNW 2.3 mph 2.3 mph 23 % 0.00 in
18:22 94.7 °F 52.3 °F 29.83 in NW 3.5 mph 3.5 mph 24 % 0.00 in
18:27 94.6 °F 55.4 °F 29.83 in NW 2.0 mph 2.0 mph 27 % 0.00 in
18:32 94.3 °F 55.2 °F 29.83 in NW 3.5 mph 3.5 mph 27 % 0.00 in
18:37 94.1 °F 55.0 °F 29.83 in NW 3.0 mph 3.0 mph 27 % 0.00 in
18:43 93.9 °F 55.8 °F 29.83 in NNW 3.5 mph 3.5 mph 28 % 0.00 in
18:48 93.9 °F 53.8 °F 29.83 in NW 2.3 mph 2.3 mph 26 % 0.00 in
18:53 93.7 °F 55.7 °F 29.83 in WNW 1.2 mph 1.2 mph 28 % 0.00 in
18:58 93.3 °F 55.3 °F 29.83 in NW 2.3 mph 2.3 mph 28 % 0.00 in
19:03 92.8 °F 55.9 °F 29.83 in WNW 2.3 mph 2.3 mph 29 % 0.00 in
19:08 92.2 °F 57.2 °F 29.83 in NNW 1.2 mph 1.2 mph 31 % 0.00 in
19:13 91.6 °F 56.7 °F 29.83 in WNW 1.2 mph 1.2 mph 31 % 0.00 in
19:18 91.1 °F 55.3 °F 29.83 in NW 2.3 mph 2.3 mph 30 % 0.00 in
19:23 90.6 °F 56.7 °F 29.83 in NW 1.2 mph 1.2 mph 32 % 0.00 in
19:28 90.1 °F 57.1 °F 29.83 in WNW 1.2 mph 1.2 mph 33 % 0.00 in
19:33 89.6 °F 57.5 °F 29.83 in WNW 1.2 mph 1.2 mph 34 % 0.00 in
19:38 89.2 °F 56.3 °F 29.84 in NW 1.2 mph 1.2 mph 33 % 0.00 in
19:43 88.7 °F 55.9 °F 29.84 in WNW 1.2 mph 1.2 mph 33 % 0.00 in
19:48 88.3 °F 56.4 °F 29.84 in Calm     34 % 0.00 in
19:53 87.8 °F 55.1 °F 29.84 in Calm     33 % 0.00 in
19:58 87.4 °F 56.4 °F 29.84 in Calm     35 % 0.00 in
20:03 87.0 °F 57.6 °F 29.84 in Calm     37 % 0.00 in
20:08 86.5 °F 55.6 °F 29.84 in Calm     35 % 0.00 in
20:13 85.9 °F 57.3 °F 29.84 in Calm     38 % 0.00 in
20:18 85.1 °F 57.4 °F 29.84 in Calm     39 % 0.00 in
20:23 84.3 °F 56.6 °F 29.84 in Calm     39 % 0.00 in
20:28 83.5 °F 57.3 °F 29.84 in Calm     41 % 0.00 in
20:33 82.7 °F 56.6 °F 29.84 in Calm     41 % 0.00 in
20:38 82.1 °F 56.1 °F 29.84 in Calm     41 % 0.00 in
20:43 81.4 °F 56.1 °F 29.84 in Calm     42 % 0.00 in
20:48 80.7 °F 57.4 °F 29.85 in Calm     45 % 0.00 in
20:53 80.1 °F 56.8 °F 29.85 in Calm     45 % 0.00 in
20:58 79.6 °F 57.6 °F 29.85 in Calm     47 % 0.00 in
21:03 79.1 °F 57.7 °F 29.85 in Calm     48 % 0.00 in
21:08 78.7 °F 56.8 °F 29.85 in Calm     47 % 0.00 in
21:13 78.4 °F 59.3 °F 29.85 in Calm     52 % 0.00 in
21:18 78.0 °F 58.4 °F 29.85 in Calm     51 % 0.00 in
21:23 77.7 °F 58.7 °F 29.85 in Calm     52 % 0.00 in
21:28 77.4 °F 58.9 °F 29.85 in Calm     53 % 0.00 in
21:33 77.2 °F 59.8 °F 29.86 in Calm     55 % 0.00 in
21:38 77.2 °F 58.7 °F 29.86 in Calm     53 % 0.00 in
21:43 77.0 °F 58.0 °F 29.86 in Calm     52 % 0.00 in
21:48 76.8 °F 57.8 °F 29.86 in Calm     52 % 0.00 in
21:54 76.9 °F 58.5 °F 29.86 in Calm     53 % 0.00 in
21:59 77.0 °F 58.6 °F 29.86 in Calm     53 % 0.00 in
22:04 76.8 °F 58.4 °F 29.86 in Calm     53 % 0.00 in
22:09 76.4 °F 58.0 °F 29.86 in Calm     53 % 0.00 in
22:14 76.1 °F 57.7 °F 29.87 in Calm     53 % 0.00 in
22:19 75.9 °F 57.5 °F 29.87 in Calm     53 % 0.00 in
22:24 75.9 °F 58.6 °F 29.86 in Calm     55 % 0.00 in
22:29 75.8 °F 58.5 °F 29.86 in Calm     55 % 0.00 in
22:34 75.9 °F 58.1 °F 29.86 in Calm     54 % 0.00 in
22:39 76.3 °F 57.4 °F 29.86 in Calm     52 % 0.00 in
22:44 76.5 °F 58.6 °F 29.86 in Calm     54 % 0.00 in
22:49 76.0 °F 58.7 °F 29.86 in Calm     55 % 0.00 in
22:54 75.4 °F 58.6 °F 29.86 in Calm     56 % 0.00 in
22:59 75.0 °F 58.2 °F 29.86 in Calm     56 % 0.00 in
23:04 74.7 °F 58.5 °F 29.86 in Calm     57 % 0.00 in
23:09 74.2 °F 58.5 °F 29.87 in Calm     58 % 0.00 in
23:14 73.8 °F 57.6 °F 29.87 in Calm     57 % 0.00 in
23:19 73.9 °F 58.2 °F 29.87 in Calm     58 % 0.00 in
23:24 73.8 °F 58.6 °F 29.87 in Calm     59 % 0.00 in
23:29 74.1 °F 57.4 °F 29.87 in Calm     56 % 0.00 in
23:34 74.6 °F 57.4 °F 29.87 in Calm   0.1 mph 55 % 0.00 in
23:39 74.7 °F 57.5 °F 29.86 in WNW 1.2 mph   55 % 0.00 in
23:44 75.0 °F 57.2 °F 29.87 in Calm     54 % 0.00 in
23:49 75.3 °F 57.0 °F 29.87 in WNW 1.2 mph 1.2 mph 53 % 0.00 in
23:54 75.8 °F 55.8 °F 29.86 in WNW 1.2 mph 1.2 mph 50 % 0.00 in
23:59 75.9 °F 58.1 °F 29.86 in Calm     54 % 0.00 in
Park Place, Exeter, Tulare County, California, USA
Compliments of Weather Underground - 2.75 mb